Terminal Aerodrome Forecast
Issued by NWS

Current Version | Previous Version | Graphics & Text | Print | Product List | Glossary On
Versions: 1 2 3 4 5 6 7 8 9 10 11 12 13 14 15 16 17 18 19 20 21 22 23 24 25 26 27 28 29
240
FTUS41 KILN 290240 AAB
TAFLCK
TAF AMD
KLCK 290240Z 2903/2924 VRB03KT P6SM BKN035 BKN150
     FM290400 00000KT 4SM BR BKN150
      TEMPO 2909/2913 1SM BR BKN008
     FM291300 VRB03KT P6SM BKN025
     FM291600 19004KT P6SM VCTS BKN040CB BKN150=

USA.gov is the U.S. government's official web portal to all federal, state and local government web resources and services.